sensor_id;sensor_type;location;lat;lon;timestamp;P1;durP1;ratioP1;P2;durP2;ratioP2
10150;SDS011;5116;52.318;4.644;2023-05-23T00:01:47;4.30;;;3.20;;
10150;SDS011;5116;52.318;4.644;2023-05-23T00:04:15;4.63;;;3.03;;
10150;SDS011;5116;52.318;4.644;2023-05-23T00:06:44;3.53;;;2.73;;
10150;SDS011;5116;52.318;4.644;2023-05-23T00:09:12;5.47;;;2.83;;
10150;SDS011;5116;52.318;4.644;2023-05-23T00:11:40;7.87;;;3.40;;
10150;SDS011;5116;52.318;4.644;2023-05-23T00:14:11;5.30;;;2.60;;
10150;SDS011;5116;52.318;4.644;2023-05-23T00:16:41;4.37;;;3.20;;
10150;SDS011;5116;52.318;4.644;2023-05-23T00:19:10;4.93;;;2.97;;
10150;SDS011;5116;52.318;4.644;2023-05-23T00:21:45;3.87;;;2.80;;
10150;SDS011;5116;52.318;4.644;2023-05-23T00:24:14;6.20;;;3.40;;
10150;SDS011;5116;52.318;4.644;2023-05-23T00:26:44;3.90;;;3.10;;
10150;SDS011;5116;52.318;4.644;2023-05-23T00:29:12;5.17;;;3.07;;
10150;SDS011;5116;52.318;4.644;2023-05-23T00:31:42;3.93;;;2.80;;
10150;SDS011;5116;52.318;4.644;2023-05-23T00:34:13;4.20;;;2.83;;
10150;SDS011;5116;52.318;4.644;2023-05-23T00:36:40;5.37;;;3.20;;
10150;SDS011;5116;52.318;4.644;2023-05-23T00:39:09;5.10;;;3.37;;
10150;SDS011;5116;52.318;4.644;2023-05-23T00:41:47;4.53;;;2.90;;
10150;SDS011;5116;52.318;4.644;2023-05-23T00:44:17;4.50;;;3.27;;
10150;SDS011;5116;52.318;4.644;2023-05-23T00:46:46;3.77;;;2.90;;
10150;SDS011;5116;52.318;4.644;2023-05-23T00:49:15;4.27;;;2.70;;
10150;SDS011;5116;52.318;4.644;2023-05-23T00:51:45;6.37;;;3.07;;
10150;SDS011;5116;52.318;4.644;2023-05-23T00:54:17;4.60;;;2.83;;
10150;SDS011;5116;52.318;4.644;2023-05-23T00:56:45;4.90;;;3.10;;
10150;SDS011;5116;52.318;4.644;2023-05-23T00:59:13;3.37;;;2.80;;
10150;SDS011;5116;52.318;4.644;2023-05-23T01:01:41;4.10;;;2.80;;
10150;SDS011;5116;52.318;4.644;2023-05-23T01:04:13;6.87;;;3.47;;
10150;SDS011;5116;52.318;4.644;2023-05-23T01:06:42;5.20;;;3.30;;
10150;SDS011;5116;52.318;4.644;2023-05-23T01:09:12;5.87;;;2.87;;
10150;SDS011;5116;52.318;4.644;2023-05-23T01:11:55;4.13;;;3.43;;
10150;SDS011;5116;52.318;4.644;2023-05-23T01:14:36;3.57;;;2.77;;
10150;SDS011;5116;52.318;4.644;2023-05-23T01:17:12;4.33;;;2.67;;
10150;SDS011;5116;52.318;4.644;2023-05-23T01:22:37;6.87;;;3.00;;
10150;SDS011;5116;52.318;4.644;2023-05-23T01:25:06;3.63;;;2.57;;
10150;SDS011;5116;52.318;4.644;2023-05-23T01:27:46;4.90;;;3.20;;
10150;SDS011;5116;52.318;4.644;2023-05-23T01:30:16;5.40;;;2.83;;
10150;SDS011;5116;52.318;4.644;2023-05-23T01:32:46;4.77;;;3.00;;
10150;SDS011;5116;52.318;4.644;2023-05-23T01:35:16;4.43;;;3.03;;
10150;SDS011;5116;52.318;4.644;2023-05-23T01:37:46;3.93;;;2.80;;
10150;SDS011;5116;52.318;4.644;2023-05-23T01:40:13;5.27;;;3.10;;
10150;SDS011;5116;52.318;4.644;2023-05-23T01:42:41;4.33;;;3.10;;
10150;SDS011;5116;52.318;4.644;2023-05-23T01:45:08;4.63;;;2.90;;
10150;SDS011;5116;52.318;4.644;2023-05-23T01:47:36;3.80;;;2.50;;
10150;SDS011;5116;52.318;4.644;2023-05-23T01:50:05;4.33;;;2.80;;
10150;SDS011;5116;52.318;4.644;2023-05-23T01:52:33;3.20;;;2.73;;
10150;SDS011;5116;52.318;4.644;2023-05-23T01:55:02;3.70;;;2.47;;
10150;SDS011;5116;52.318;4.644;2023-05-23T01:57:36;3.10;;;2.63;;
10150;SDS011;5116;52.318;4.644;2023-05-23T02:00:04;3.43;;;2.73;;
10150;SDS011;5116;52.318;4.644;2023-05-23T02:02:38;4.27;;;3.37;;
10150;SDS011;5116;52.318;4.644;2023-05-23T02:05:06;5.17;;;3.00;;
10150;SDS011;5116;52.318;4.644;2023-05-23T02:07:35;4.90;;;2.97;;
10150;SDS011;5116;52.318;4.644;2023-05-23T02:10:03;4.23;;;2.47;;
10150;SDS011;5116;52.318;4.644;2023-05-23T02:12:31;4.73;;;2.73;;
10150;SDS011;5116;52.318;4.644;2023-05-23T02:14:58;4.87;;;2.93;;
10150;SDS011;5116;52.318;4.644;2023-05-23T02:17:25;5.10;;;3.00;;
10150;SDS011;5116;52.318;4.644;2023-05-23T02:19:53;3.77;;;2.80;;
10150;SDS011;5116;52.318;4.644;2023-05-23T02:22:24;3.27;;;2.70;;
10150;SDS011;5116;52.318;4.644;2023-05-23T02:24:51;3.60;;;2.50;;
10150;SDS011;5116;52.318;4.644;2023-05-23T02:27:19;6.30;;;2.97;;
10150;SDS011;5116;52.318;4.644;2023-05-23T02:29:46;4.93;;;2.80;;
10150;SDS011;5116;52.318;4.644;2023-05-23T02:32:13;5.23;;;3.00;;
10150;SDS011;5116;52.318;4.644;2023-05-23T02:34:41;6.23;;;3.10;;
10150;SDS011;5116;52.318;4.644;2023-05-23T02:37:15;5.63;;;2.57;;
10150;SDS011;5116;52.318;4.644;2023-05-23T02:39:42;5.57;;;2.67;;
10150;SDS011;5116;52.318;4.644;2023-05-23T02:42:10;2.20;;;1.93;;
10150;SDS011;5116;52.318;4.644;2023-05-23T02:44:37;3.97;;;2.33;;
10150;SDS011;5116;52.318;4.644;2023-05-23T02:47:05;2.40;;;1.97;;
10150;SDS011;5116;52.318;4.644;2023-05-23T02:49:33;2.57;;;2.37;;
10150;SDS011;5116;52.318;4.644;2023-05-23T02:52:00;4.93;;;2.47;;
10150;SDS011;5116;52.318;4.644;2023-05-23T02:54:28;3.90;;;2.30;;
10150;SDS011;5116;52.318;4.644;2023-05-23T02:56:55;4.03;;;2.63;;
10150;SDS011;5116;52.318;4.644;2023-05-23T02:59:24;2.60;;;2.13;;
10150;SDS011;5116;52.318;4.644;2023-05-23T03:01:52;4.67;;;2.43;;
10150;SDS011;5116;52.318;4.644;2023-05-23T03:04:19;4.27;;;1.90;;
10150;SDS011;5116;52.318;4.644;2023-05-23T03:06:47;4.53;;;2.33;;
10150;SDS011;5116;52.318;4.644;2023-05-23T03:09:14;3.10;;;2.80;;
10150;SDS011;5116;52.318;4.644;2023-05-23T03:11:45;3.87;;;2.17;;
10150;SDS011;5116;52.318;4.644;2023-05-23T03:14:12;2.33;;;1.90;;
10150;SDS011;5116;52.318;4.644;2023-05-23T03:16:40;2.40;;;1.90;;
10150;SDS011;5116;52.318;4.644;2023-05-23T03:19:08;2.70;;;1.90;;
10150;SDS011;5116;52.318;4.644;2023-05-23T03:21:35;3.67;;;1.97;;
10150;SDS011;5116;52.318;4.644;2023-05-23T03:24:03;2.47;;;1.93;;
10150;SDS011;5116;52.318;4.644;2023-05-23T03:26:30;4.40;;;1.93;;
10150;SDS011;5116;52.318;4.644;2023-05-23T03:28:58;2.43;;;2.00;;
10150;SDS011;5116;52.318;4.644;2023-05-23T03:31:25;2.50;;;1.63;;
10150;SDS011;5116;52.318;4.644;2023-05-23T03:33:53;3.97;;;1.77;;
10150;SDS011;5116;52.318;4.644;2023-05-23T03:36:20;2.20;;;1.80;;
10150;SDS011;5116;52.318;4.644;2023-05-23T03:38:51;1.97;;;1.70;;
10150;SDS011;5116;52.318;4.644;2023-05-23T03:41:19;2.23;;;1.87;;
10150;SDS011;5116;52.318;4.644;2023-05-23T03:43:48;2.07;;;1.67;;
10150;SDS011;5116;52.318;4.644;2023-05-23T03:46:16;2.70;;;1.90;;
10150;SDS011;5116;52.318;4.644;2023-05-23T03:48:43;5.00;;;2.00;;
10150;SDS011;5116;52.318;4.644;2023-05-23T03:51:11;2.43;;;2.10;;
10150;SDS011;5116;52.318;4.644;2023-05-23T03:53:40;4.93;;;2.40;;
10150;SDS011;5116;52.318;4.644;2023-05-23T03:56:08;6.40;;;2.30;;
10150;SDS011;5116;52.318;4.644;2023-05-23T03:58:36;2.07;;;1.83;;
10150;SDS011;5116;52.318;4.644;2023-05-23T04:01:10;2.37;;;1.73;;
10150;SDS011;5116;52.318;4.644;2023-05-23T04:03:38;5.43;;;2.20;;
10150;SDS011;5116;52.318;4.644;2023-05-23T04:06:06;2.40;;;2.00;;
10150;SDS011;5116;52.318;4.644;2023-05-23T04:08:36;2.83;;;2.10;;
10150;SDS011;5116;52.318;4.644;2023-05-23T04:11:07;3.00;;;2.20;;
10150;SDS011;5116;52.318;4.644;2023-05-23T04:13:36;3.10;;;2.20;;
10150;SDS011;5116;52.318;4.644;2023-05-23T04:16:04;2.63;;;2.27;;
10150;SDS011;5116;52.318;4.644;2023-05-23T04:18:32;3.50;;;2.43;;
10150;SDS011;5116;52.318;4.644;2023-05-23T04:20:59;2.80;;;2.47;;
10150;SDS011;5116;52.318;4.644;2023-05-23T04:23:28;3.83;;;2.80;;
10150;SDS011;5116;52.318;4.644;2023-05-23T04:25:56;2.73;;;2.07;;
10150;SDS011;5116;52.318;4.644;2023-05-23T04:28:26;3.37;;;2.47;;
10150;SDS011;5116;52.318;4.644;2023-05-23T04:30:53;4.77;;;2.70;;
10150;SDS011;5116;52.318;4.644;2023-05-23T04:33:25;3.77;;;2.70;;
10150;SDS011;5116;52.318;4.644;2023-05-23T04:35:54;5.10;;;2.53;;
10150;SDS011;5116;52.318;4.644;2023-05-23T04:38:22;2.93;;;2.33;;
10150;SDS011;5116;52.318;4.644;2023-05-23T04:40:51;4.37;;;2.63;;
10150;SDS011;5116;52.318;4.644;2023-05-23T04:43:25;4.63;;;2.57;;
10150;SDS011;5116;52.318;4.644;2023-05-23T04:46:02;5.80;;;2.50;;
10150;SDS011;5116;52.318;4.644;2023-05-23T04:48:39;3.30;;;2.47;;
10150;SDS011;5116;52.318;4.644;2023-05-23T04:51:08;4.33;;;2.43;;
10150;SDS011;5116;52.318;4.644;2023-05-23T04:54:03;5.40;;;3.10;;
10150;SDS011;5116;52.318;4.644;2023-05-23T04:56:31;3.57;;;2.17;;
10150;SDS011;5116;52.318;4.644;2023-05-23T04:58:58;5.63;;;2.93;;
10150;SDS011;5116;52.318;4.644;2023-05-23T05:01:26;5.30;;;2.70;;
10150;SDS011;5116;52.318;4.644;2023-05-23T05:03:54;3.43;;;2.77;;
10150;SDS011;5116;52.318;4.644;2023-05-23T05:06:22;4.73;;;2.53;;
10150;SDS011;5116;52.318;4.644;2023-05-23T05:08:50;3.73;;;2.57;;
10150;SDS011;5116;52.318;4.644;2023-05-23T05:11:19;6.50;;;2.90;;
10150;SDS011;5116;52.318;4.644;2023-05-23T05:13:50;5.17;;;2.50;;
10150;SDS011;5116;52.318;4.644;2023-05-23T05:16:18;4.10;;;2.47;;
10150;SDS011;5116;52.318;4.644;2023-05-23T05:18:47;4.33;;;2.57;;
10150;SDS011;5116;52.318;4.644;2023-05-23T05:21:17;3.87;;;2.33;;
10150;SDS011;5116;52.318;4.644;2023-05-23T05:23:44;4.77;;;2.30;;
10150;SDS011;5116;52.318;4.644;2023-05-23T05:26:14;3.87;;;2.23;;
10150;SDS011;5116;52.318;4.644;2023-05-23T05:28:42;3.03;;;2.40;;
10150;SDS011;5116;52.318;4.644;2023-05-23T05:31:10;3.33;;;2.10;;
10150;SDS011;5116;52.318;4.644;2023-05-23T05:33:41;3.57;;;2.50;;
10150;SDS011;5116;52.318;4.644;2023-05-23T05:36:13;4.03;;;2.20;;
10150;SDS011;5116;52.318;4.644;2023-05-23T05:38:41;3.00;;;2.53;;
10150;SDS011;5116;52.318;4.644;2023-05-23T05:41:09;3.00;;;2.10;;
10150;SDS011;5116;52.318;4.644;2023-05-23T05:43:46;3.10;;;2.23;;
10150;SDS011;5116;52.318;4.644;2023-05-23T05:46:16;3.17;;;1.97;;
10150;SDS011;5116;52.318;4.644;2023-05-23T05:48:45;2.67;;;1.87;;
10150;SDS011;5116;52.318;4.644;2023-05-23T05:51:14;1.77;;;1.67;;
10150;SDS011;5116;52.318;4.644;2023-05-23T05:53:42;2.37;;;1.93;;
10150;SDS011;5116;52.318;4.644;2023-05-23T05:56:10;2.73;;;2.10;;
10150;SDS011;5116;52.318;4.644;2023-05-23T05:58:37;3.00;;;1.97;;
10150;SDS011;5116;52.318;4.644;2023-05-23T06:01:07;2.30;;;2.10;;
10150;SDS011;5116;52.318;4.644;2023-05-23T06:03:35;2.53;;;1.77;;
10150;SDS011;5116;52.318;4.644;2023-05-23T06:06:03;2.43;;;1.67;;
10150;SDS011;5116;52.318;4.644;2023-05-23T06:08:30;2.07;;;1.83;;
10150;SDS011;5116;52.318;4.644;2023-05-23T06:10:58;2.93;;;1.97;;
10150;SDS011;5116;52.318;4.644;2023-05-23T06:13:25;3.00;;;2.00;;
10150;SDS011;5116;52.318;4.644;2023-05-23T06:15:53;1.90;;;1.60;;
10150;SDS011;5116;52.318;4.644;2023-05-23T06:18:21;3.23;;;1.90;;
10150;SDS011;5116;52.318;4.644;2023-05-23T06:20:50;1.90;;;1.60;;
10150;SDS011;5116;52.318;4.644;2023-05-23T06:23:19;3.57;;;2.07;;
10150;SDS011;5116;52.318;4.644;2023-05-23T06:25:47;2.50;;;1.70;;
10150;SDS011;5116;52.318;4.644;2023-05-23T06:28:14;1.83;;;1.50;;
10150;SDS011;5116;52.318;4.644;2023-05-23T06:30:44;1.73;;;1.50;;
10150;SDS011;5116;52.318;4.644;2023-05-23T06:33:11;2.43;;;1.67;;
10150;SDS011;5116;52.318;4.644;2023-05-23T06:35:40;1.70;;;1.40;;
10150;SDS011;5116;52.318;4.644;2023-05-23T06:38:08;1.73;;;1.40;;
10150;SDS011;5116;52.318;4.644;2023-05-23T06:40:36;1.73;;;1.43;;
10150;SDS011;5116;52.318;4.644;2023-05-23T06:43:03;1.63;;;1.20;;
10150;SDS011;5116;52.318;4.644;2023-05-23T06:45:44;3.20;;;1.60;;
10150;SDS011;5116;52.318;4.644;2023-05-23T06:48:15;2.17;;;1.67;;
10150;SDS011;5116;52.318;4.644;2023-05-23T06:50:43;2.87;;;1.67;;
10150;SDS011;5116;52.318;4.644;2023-05-23T06:53:11;2.43;;;1.47;;
10150;SDS011;5116;52.318;4.644;2023-05-23T06:55:40;3.57;;;1.63;;
10150;SDS011;5116;52.318;4.644;2023-05-23T06:58:10;4.03;;;1.30;;
10150;SDS011;5116;52.318;4.644;2023-05-23T07:00:38;2.97;;;1.27;;
10150;SDS011;5116;52.318;4.644;2023-05-23T07:03:15;2.07;;;1.40;;
10150;SDS011;5116;52.318;4.644;2023-05-23T07:05:43;3.33;;;1.67;;
10150;SDS011;5116;52.318;4.644;2023-05-23T07:08:10;1.90;;;1.47;;
10150;SDS011;5116;52.318;4.644;2023-05-23T07:10:43;1.93;;;1.53;;
10150;SDS011;5116;52.318;4.644;2023-05-23T07:13:29;3.60;;;1.40;;
10150;SDS011;5116;52.318;4.644;2023-05-23T07:15:57;3.27;;;1.60;;
10150;SDS011;5116;52.318;4.644;2023-05-23T07:18:25;4.37;;;1.50;;
10150;SDS011;5116;52.318;4.644;2023-05-23T07:20:53;3.07;;;1.40;;
10150;SDS011;5116;52.318;4.644;2023-05-23T07:23:21;1.60;;;1.50;;
10150;SDS011;5116;52.318;4.644;2023-05-23T07:25:52;2.50;;;1.73;;
10150;SDS011;5116;52.318;4.644;2023-05-23T07:28:27;1.93;;;1.47;;
10150;SDS011;5116;52.318;4.644;2023-05-23T07:30:56;2.80;;;1.50;;
10150;SDS011;5116;52.318;4.644;2023-05-23T07:33:24;2.60;;;1.50;;
10150;SDS011;5116;52.318;4.644;2023-05-23T07:35:57;3.73;;;1.67;;
10150;SDS011;5116;52.318;4.644;2023-05-23T07:38:25;1.53;;;1.23;;
10150;SDS011;5116;52.318;4.644;2023-05-23T07:40:52;1.83;;;1.70;;
10150;SDS011;5116;52.318;4.644;2023-05-23T07:43:36;4.13;;;1.73;;
10150;SDS011;5116;52.318;4.644;2023-05-23T07:46:03;2.17;;;1.40;;
10150;SDS011;5116;52.318;4.644;2023-05-23T07:48:31;3.80;;;1.67;;
10150;SDS011;5116;52.318;4.644;2023-05-23T07:50:58;3.03;;;1.60;;
10150;SDS011;5116;52.318;4.644;2023-05-23T07:53:27;3.27;;;1.73;;
10150;SDS011;5116;52.318;4.644;2023-05-23T07:55:56;1.47;;;1.37;;
10150;SDS011;5116;52.318;4.644;2023-05-23T07:58:27;3.27;;;1.83;;
10150;SDS011;5116;52.318;4.644;2023-05-23T08:00:55;4.90;;;1.87;;
10150;SDS011;5116;52.318;4.644;2023-05-23T08:03:54;3.33;;;1.70;;
10150;SDS011;5116;52.318;4.644;2023-05-23T08:06:28;3.03;;;1.57;;
10150;SDS011;5116;52.318;4.644;2023-05-23T08:09:00;1.97;;;1.30;;
10150;SDS011;5116;52.318;4.644;2023-05-23T08:11:29;1.83;;;1.60;;
10150;SDS011;5116;52.318;4.644;2023-05-23T08:13:56;4.43;;;1.60;;
10150;SDS011;5116;52.318;4.644;2023-05-23T08:16:35;3.00;;;1.40;;
10150;SDS011;5116;52.318;4.644;2023-05-23T08:19:08;3.27;;;1.90;;
10150;SDS011;5116;52.318;4.644;2023-05-23T08:21:36;4.97;;;1.80;;
10150;SDS011;5116;52.318;4.644;2023-05-23T08:24:04;3.23;;;1.70;;
10150;SDS011;5116;52.318;4.644;2023-05-23T08:26:32;2.70;;;1.70;;
10150;SDS011;5116;52.318;4.644;2023-05-23T08:29:03;3.70;;;1.57;;
10150;SDS011;5116;52.318;4.644;2023-05-23T08:31:31;2.30;;;1.57;;
10150;SDS011;5116;52.318;4.644;2023-05-23T08:34:03;3.50;;;1.33;;
10150;SDS011;5116;52.318;4.644;2023-05-23T08:36:31;1.60;;;1.50;;
10150;SDS011;5116;52.318;4.644;2023-05-23T08:39:02;3.30;;;1.87;;
10150;SDS011;5116;52.318;4.644;2023-05-23T08:41:34;3.10;;;1.60;;
10150;SDS011;5116;52.318;4.644;2023-05-23T08:44:06;3.47;;;1.63;;
10150;SDS011;5116;52.318;4.644;2023-05-23T08:46:39;2.80;;;1.60;;
10150;SDS011;5116;52.318;4.644;2023-05-23T08:49:09;1.70;;;1.60;;
10150;SDS011;5116;52.318;4.644;2023-05-23T08:51:41;3.10;;;1.67;;
10150;SDS011;5116;52.318;4.644;2023-05-23T08:54:14;1.43;;;1.27;;
10150;SDS011;5116;52.318;4.644;2023-05-23T08:56:42;1.63;;;1.50;;
10150;SDS011;5116;52.318;4.644;2023-05-23T08:59:11;4.57;;;1.60;;
10150;SDS011;5116;52.318;4.644;2023-05-23T09:01:39;1.77;;;1.57;;
10150;SDS011;5116;52.318;4.644;2023-05-23T09:04:10;3.43;;;1.57;;
10150;SDS011;5116;52.318;4.644;2023-05-23T09:06:47;4.47;;;1.50;;
10150;SDS011;5116;52.318;4.644;2023-05-23T09:09:14;4.60;;;1.80;;
10150;SDS011;5116;52.318;4.644;2023-05-23T09:11:42;2.37;;;1.43;;
10150;SDS011;5116;52.318;4.644;2023-05-23T09:14:12;2.70;;;1.53;;
10150;SDS011;5116;52.318;4.644;2023-05-23T09:16:41;5.07;;;1.70;;
10150;SDS011;5116;52.318;4.644;2023-05-23T09:19:15;2.57;;;1.80;;
10150;SDS011;5116;52.318;4.644;2023-05-23T09:21:52;3.47;;;1.40;;
10150;SDS011;5116;52.318;4.644;2023-05-23T09:24:34;4.20;;;1.90;;
10150;SDS011;5116;52.318;4.644;2023-05-23T09:27:05;2.03;;;1.30;;
10150;SDS011;5116;52.318;4.644;2023-05-23T09:29:36;4.10;;;1.43;;
10150;SDS011;5116;52.318;4.644;2023-05-23T09:32:11;4.03;;;1.63;;
10150;SDS011;5116;52.318;4.644;2023-05-23T09:35:01;5.27;;;1.87;;
10150;SDS011;5116;52.318;4.644;2023-05-23T09:39:59;2.97;;;1.80;;
10150;SDS011;5116;52.318;4.644;2023-05-23T09:42:32;2.33;;;1.50;;
10150;SDS011;5116;52.318;4.644;2023-05-23T09:44:59;4.00;;;1.80;;
10150;SDS011;5116;52.318;4.644;2023-05-23T09:47:30;4.20;;;1.70;;
10150;SDS011;5116;52.318;4.644;2023-05-23T09:49:57;1.80;;;1.60;;
10150;SDS011;5116;52.318;4.644;2023-05-23T09:52:25;2.17;;;1.50;;
10150;SDS011;5116;52.318;4.644;2023-05-23T09:54:53;2.37;;;1.50;;
10150;SDS011;5116;52.318;4.644;2023-05-23T09:57:21;1.87;;;1.53;;
10150;SDS011;5116;52.318;4.644;2023-05-23T09:59:52;1.80;;;1.23;;
10150;SDS011;5116;52.318;4.644;2023-05-23T10:02:25;1.67;;;1.30;;
10150;SDS011;5116;52.318;4.644;2023-05-23T10:04:57;1.83;;;1.57;;
10150;SDS011;5116;52.318;4.644;2023-05-23T10:07:25;1.60;;;1.50;;
10150;SDS011;5116;52.318;4.644;2023-05-23T10:09:54;3.43;;;1.47;;
10150;SDS011;5116;52.318;4.644;2023-05-23T10:15:01;2.73;;;1.50;;
10150;SDS011;5116;52.318;4.644;2023-05-23T10:17:32;3.40;;;1.53;;
10150;SDS011;5116;52.318;4.644;2023-05-23T10:20:03;4.43;;;1.80;;
10150;SDS011;5116;52.318;4.644;2023-05-23T10:22:37;2.40;;;1.40;;
10150;SDS011;5116;52.318;4.644;2023-05-23T10:25:05;3.97;;;1.60;;
10150;SDS011;5116;52.318;4.644;2023-05-23T10:27:34;3.37;;;1.50;;
10150;SDS011;5116;52.318;4.644;2023-05-23T10:30:01;3.47;;;1.70;;
10150;SDS011;5116;52.318;4.644;2023-05-23T10:32:29;5.17;;;1.70;;
10150;SDS011;5116;52.318;4.644;2023-05-23T10:35:03;2.17;;;1.50;;
10150;SDS011;5116;52.318;4.644;2023-05-23T10:40:06;2.77;;;1.30;;
10150;SDS011;5116;52.318;4.644;2023-05-23T10:42:50;2.37;;;1.40;;
10150;SDS011;5116;52.318;4.644;2023-05-23T10:45:19;3.00;;;1.50;;
10150;SDS011;5116;52.318;4.644;2023-05-23T10:47:48;2.97;;;1.70;;
10150;SDS011;5116;52.318;4.644;2023-05-23T10:50:29;2.47;;;1.50;;
10150;SDS011;5116;52.318;4.644;2023-05-23T10:52:58;3.30;;;2.00;;
10150;SDS011;5116;52.318;4.644;2023-05-23T10:55:30;3.63;;;1.83;;
10150;SDS011;5116;52.318;4.644;2023-05-23T10:58:11;2.07;;;1.60;;
10150;SDS011;5116;52.318;4.644;2023-05-23T11:00:41;2.87;;;1.33;;
10150;SDS011;5116;52.318;4.644;2023-05-23T11:03:13;4.37;;;1.47;;
10150;SDS011;5116;52.318;4.644;2023-05-23T11:05:46;2.23;;;1.60;;
10150;SDS011;5116;52.318;4.644;2023-05-23T11:08:13;3.23;;;1.60;;
10150;SDS011;5116;52.318;4.644;2023-05-23T11:13:22;2.30;;;1.43;;
10150;SDS011;5116;52.318;4.644;2023-05-23T11:15:50;3.70;;;1.40;;
10150;SDS011;5116;52.318;4.644;2023-05-23T11:18:22;1.73;;;1.30;;
10150;SDS011;5116;52.318;4.644;2023-05-23T11:20:50;1.50;;;1.40;;
10150;SDS011;5116;52.318;4.644;2023-05-23T11:23:20;2.07;;;1.40;;
10150;SDS011;5116;52.318;4.644;2023-05-23T11:25:48;3.60;;;1.47;;
10150;SDS011;5116;52.318;4.644;2023-05-23T11:28:16;4.77;;;1.53;;
10150;SDS011;5116;52.318;4.644;2023-05-23T11:30:46;2.10;;;1.30;;
10150;SDS011;5116;52.318;4.644;2023-05-23T11:33:17;3.40;;;1.40;;
10150;SDS011;5116;52.318;4.644;2023-05-23T11:35:46;5.27;;;1.70;;
10150;SDS011;5116;52.318;4.644;2023-05-23T11:38:15;4.03;;;1.70;;
10150;SDS011;5116;52.318;4.644;2023-05-23T11:40:45;3.70;;;1.50;;
10150;SDS011;5116;52.318;4.644;2023-05-23T11:43:14;3.27;;;1.70;;
10150;SDS011;5116;52.318;4.644;2023-05-23T11:45:45;2.17;;;1.20;;
10150;SDS011;5116;52.318;4.644;2023-05-23T11:48:13;2.30;;;1.47;;
10150;SDS011;5116;52.318;4.644;2023-05-23T11:50:48;2.67;;;1.50;;
10150;SDS011;5116;52.318;4.644;2023-05-23T11:53:16;3.17;;;1.50;;
10150;SDS011;5116;52.318;4.644;2023-05-23T11:55:52;2.80;;;1.23;;
10150;SDS011;5116;52.318;4.644;2023-05-23T11:58:21;3.10;;;1.43;;
10150;SDS011;5116;52.318;4.644;2023-05-23T12:00:48;2.03;;;1.33;;
10150;SDS011;5116;52.318;4.644;2023-05-23T12:03:19;1.70;;;1.50;;
10150;SDS011;5116;52.318;4.644;2023-05-23T12:05:47;1.60;;;1.30;;
10150;SDS011;5116;52.318;4.644;2023-05-23T12:08:15;3.87;;;1.80;;
10150;SDS011;5116;52.318;4.644;2023-05-23T12:10:52;1.67;;;1.43;;
10150;SDS011;5116;52.318;4.644;2023-05-23T12:13:22;3.03;;;1.30;;
10150;SDS011;5116;52.318;4.644;2023-05-23T12:15:54;4.90;;;1.50;;
10150;SDS011;5116;52.318;4.644;2023-05-23T12:18:22;4.83;;;1.47;;
10150;SDS011;5116;52.318;4.644;2023-05-23T12:20:50;3.97;;;1.67;;
10150;SDS011;5116;52.318;4.644;2023-05-23T12:23:19;3.17;;;1.40;;
10150;SDS011;5116;52.318;4.644;2023-05-23T12:25:53;1.73;;;1.40;;
10150;SDS011;5116;52.318;4.644;2023-05-23T12:28:33;1.63;;;1.30;;
10150;SDS011;5116;52.318;4.644;2023-05-23T12:34:00;2.47;;;1.40;;
10150;SDS011;5116;52.318;4.644;2023-05-23T12:36:28;2.37;;;1.53;;
10150;SDS011;5116;52.318;4.644;2023-05-23T12:39:05;3.23;;;1.30;;
10150;SDS011;5116;52.318;4.644;2023-05-23T12:41:32;2.03;;;1.40;;
10150;SDS011;5116;52.318;4.644;2023-05-23T12:44:03;2.23;;;1.50;;
10150;SDS011;5116;52.318;4.644;2023-05-23T12:46:42;1.27;;;1.13;;
10150;SDS011;5116;52.318;4.644;2023-05-23T12:49:11;3.33;;;1.57;;
10150;SDS011;5116;52.318;4.644;2023-05-23T12:51:39;1.30;;;1.20;;
10150;SDS011;5116;52.318;4.644;2023-05-23T12:54:09;2.43;;;1.37;;
10150;SDS011;5116;52.318;4.644;2023-05-23T12:56:40;1.83;;;1.20;;
10150;SDS011;5116;52.318;4.644;2023-05-23T12:59:07;2.40;;;1.60;;
10150;SDS011;5116;52.318;4.644;2023-05-23T13:01:35;2.67;;;1.30;;
10150;SDS011;5116;52.318;4.644;2023-05-23T13:04:02;1.67;;;1.20;;
10150;SDS011;5116;52.318;4.644;2023-05-23T13:06:30;3.93;;;1.87;;
10150;SDS011;5116;52.318;4.644;2023-05-23T13:08:59;4.33;;;1.30;;
10150;SDS011;5116;52.318;4.644;2023-05-23T13:11:27;1.50;;;1.40;;
10150;SDS011;5116;52.318;4.644;2023-05-23T13:13:55;2.47;;;1.70;;
10150;SDS011;5116;52.318;4.644;2023-05-23T13:16:23;4.23;;;1.63;;
10150;SDS011;5116;52.318;4.644;2023-05-23T13:18:51;2.87;;;1.43;;
10150;SDS011;5116;52.318;4.644;2023-05-23T13:21:19;1.20;;;1.10;;
10150;SDS011;5116;52.318;4.644;2023-05-23T13:23:46;1.30;;;1.20;;
10150;SDS011;5116;52.318;4.644;2023-05-23T13:26:14;1.30;;;1.20;;
10150;SDS011;5116;52.318;4.644;2023-05-23T13:28:42;2.20;;;1.33;;
10150;SDS011;5116;52.318;4.644;2023-05-23T13:31:09;2.07;;;1.47;;
10150;SDS011;5116;52.318;4.644;2023-05-23T13:33:37;5.33;;;1.43;;
10150;SDS011;5116;52.318;4.644;2023-05-23T13:36:04;2.13;;;1.20;;
10150;SDS011;5116;52.318;4.644;2023-05-23T13:38:32;3.67;;;1.50;;
10150;SDS011;5116;52.318;4.644;2023-05-23T13:40:59;2.20;;;1.47;;
10150;SDS011;5116;52.318;4.644;2023-05-23T13:43:26;1.80;;;1.60;;
10150;SDS011;5116;52.318;4.644;2023-05-23T13:45:54;4.03;;;1.30;;
10150;SDS011;5116;52.318;4.644;2023-05-23T13:48:21;4.13;;;1.53;;
10150;SDS011;5116;52.318;4.644;2023-05-23T13:50:49;2.33;;;1.47;;
10150;SDS011;5116;52.318;4.644;2023-05-23T13:53:16;3.37;;;1.57;;
10150;SDS011;5116;52.318;4.644;2023-05-23T13:55:44;1.97;;;1.20;;
10150;SDS011;5116;52.318;4.644;2023-05-23T13:58:12;1.63;;;1.20;;
10150;SDS011;5116;52.318;4.644;2023-05-23T14:00:39;1.10;;;1.10;;
10150;SDS011;5116;52.318;4.644;2023-05-23T14:03:07;2.37;;;1.33;;
10150;SDS011;5116;52.318;4.644;2023-05-23T14:05:35;1.40;;;1.30;;
10150;SDS011;5116;52.318;4.644;2023-05-23T14:08:02;2.80;;;1.57;;
10150;SDS011;5116;52.318;4.644;2023-05-23T14:10:30;2.27;;;1.30;;
10150;SDS011;5116;52.318;4.644;2023-05-23T14:12:58;3.23;;;1.47;;
10150;SDS011;5116;52.318;4.644;2023-05-23T14:15:26;2.47;;;1.40;;
10150;SDS011;5116;52.318;4.644;2023-05-23T14:17:54;2.63;;;1.20;;
10150;SDS011;5116;52.318;4.644;2023-05-23T14:20:22;2.20;;;1.20;;
10150;SDS011;5116;52.318;4.644;2023-05-23T14:22:50;4.07;;;1.40;;
10150;SDS011;5116;52.318;4.644;2023-05-23T14:25:18;3.70;;;1.47;;
10150;SDS011;5116;52.318;4.644;2023-05-23T14:27:45;1.10;;;1.00;;
10150;SDS011;5116;52.318;4.644;2023-05-23T14:30:12;1.37;;;1.20;;
10150;SDS011;5116;52.318;4.644;2023-05-23T14:32:40;1.50;;;1.23;;
10150;SDS011;5116;52.318;4.644;2023-05-23T14:35:09;1.20;;;1.13;;
10150;SDS011;5116;52.318;4.644;2023-05-23T14:37:37;1.00;;;0.97;;
10150;SDS011;5116;52.318;4.644;2023-05-23T14:40:05;2.43;;;1.30;;
10150;SDS011;5116;52.318;4.644;2023-05-23T14:42:32;1.60;;;1.10;;
10150;SDS011;5116;52.318;4.644;2023-05-23T14:45:00;1.87;;;1.30;;
10150;SDS011;5116;52.318;4.644;2023-05-23T14:47:31;2.10;;;1.30;;
10150;SDS011;5116;52.318;4.644;2023-05-23T14:49:58;2.13;;;1.63;;
10150;SDS011;5116;52.318;4.644;2023-05-23T14:52:27;3.57;;;1.50;;
10150;SDS011;5116;52.318;4.644;2023-05-23T14:54:55;2.13;;;1.27;;
10150;SDS011;5116;52.318;4.644;2023-05-23T14:57:22;2.63;;;1.20;;
10150;SDS011;5116;52.318;4.644;2023-05-23T14:59:49;1.20;;;1.10;;
10150;SDS011;5116;52.318;4.644;2023-05-23T15:02:17;2.27;;;1.47;;
10150;SDS011;5116;52.318;4.644;2023-05-23T15:04:45;4.37;;;1.80;;
10150;SDS011;5116;52.318;4.644;2023-05-23T15:07:13;2.17;;;1.70;;
10150;SDS011;5116;52.318;4.644;2023-05-23T15:09:43;1.40;;;1.30;;
10150;SDS011;5116;52.318;4.644;2023-05-23T15:12:13;2.13;;;1.40;;
10150;SDS011;5116;52.318;4.644;2023-05-23T15:14:41;3.67;;;1.43;;
10150;SDS011;5116;52.318;4.644;2023-05-23T15:17:09;1.37;;;1.23;;
10150;SDS011;5116;52.318;4.644;2023-05-23T15:19:38;2.13;;;1.20;;
10150;SDS011;5116;52.318;4.644;2023-05-23T15:22:08;3.53;;;1.40;;
10150;SDS011;5116;52.318;4.644;2023-05-23T15:24:57;2.23;;;1.40;;
10150;SDS011;5116;52.318;4.644;2023-05-23T15:27:26;2.23;;;1.50;;
10150;SDS011;5116;52.318;4.644;2023-05-23T15:29:54;2.10;;;1.50;;
10150;SDS011;5116;52.318;4.644;2023-05-23T15:32:21;1.87;;;1.27;;